Huvudsida
METAR-TAF:

METAR-TAF

Flygplatser :

Siem Reap International Airport

Siem Reap, Kambodja

latitud: 13-22N, longitud: 103-51E, höjd: 15 m

Aktuellt väderrapport

Denna rapport gjordes för 25 minuter sedan, klockan 13:00 UTC
Vind 2 kt varierande vindriktning
Temperatur 30°C
Fuktighet 70%
Tryck 1008 hPa
Sikt: 9000 m
Få moln på en höjd av 1700 ft

METAR: VDSR 271300Z VRB02KT 9000 FEW017 30/24 Q1008

Tid: 20:25 (13:25 UTC)

Väderprognos

Denna rapport gjordes för 2 timmar och 25 minuter sedan, klockan 11:00 UTC
Prognos gäller från 27 kl. 12 UTC till 28 kl. 06 UTC
Vind 4 kt från ost/sydost
Sikt 10 km eller mer
Spridda moln på en höjd av 1700 ft
Spridda moln på en höjd av 4000 ft

TAF: VDSR 271100Z 2712/2806 11004KT 9999 SCT017 SCT040

Aktuella väderrapporter och prognoser från 4000 flygplatser (METAR- och TAF-rapporter).

De tillgängliga stationerna syns som gula och röda prickar på kartan.

För musen över prickarna för att se namnen på stationerna.

Klicka sedan för att få väderrapporter och prognoser.

För att ändra kartan: Klicka på de gröna knapparna med ett svart kors på för att zooma in; den gröna knappen med ett streck på för att zooma ut; eller på de gröna pilarna för angränsande kartor.


METAR-TAF: